createdAt,value
2018-07-06T00:02:34.030Z,88.94
2018-07-06T00:05:12.588Z,88.91
2018-07-06T00:07:51.014Z,89.83
2018-07-06T00:10:29.531Z,88.79
2018-07-06T00:13:08.120Z,89.40
2018-07-06T00:15:46.511Z,90.87
2018-07-06T00:18:24.859Z,90.34
2018-07-06T00:21:03.220Z,90.68
2018-07-06T00:23:41.739Z,90.53
2018-07-06T00:26:20.244Z,90.50
2018-07-06T00:28:58.915Z,90.56
2018-07-06T00:31:37.364Z,90.81
2018-07-06T00:34:15.759Z,91.53
2018-07-06T00:36:54.367Z,90.75
2018-07-06T00:39:32.944Z,91.29
2018-07-06T00:42:11.516Z,91.30
2018-07-06T00:44:50.052Z,91.44
2018-07-06T00:47:28.560Z,91.67
2018-07-06T00:50:07.051Z,92.96
2018-07-06T00:52:45.352Z,92.22
2018-07-06T00:55:23.837Z,92.28
2018-07-06T00:58:02.259Z,92.60
2018-07-06T01:00:40.542Z,91.87
2018-07-06T01:03:19.072Z,91.97
2018-07-06T01:05:57.516Z,91.39
2018-07-06T01:08:36.123Z,92.17
2018-07-06T01:11:14.611Z,92.11
2018-07-06T01:13:53.088Z,91.58
2018-07-06T01:16:31.507Z,90.72
2018-07-06T01:19:10.029Z,90.92
2018-07-06T01:21:48.517Z,90.71
2018-07-06T01:24:27.056Z,91.35
2018-07-06T01:27:05.484Z,91.48
2018-07-06T01:29:44.092Z,91.52
2018-07-06T01:32:22.715Z,91.28
2018-07-06T01:35:01.240Z,90.84
2018-07-06T01:37:39.687Z,88.41
2018-07-06T01:40:18.167Z,88.95
2018-07-06T01:42:56.632Z,88.87
2018-07-06T01:45:35.095Z,89.58
2018-07-06T01:48:13.531Z,89.25
2018-07-06T01:50:52.033Z,88.42
2018-07-06T01:53:30.627Z,88.48
2018-07-06T01:56:09.180Z,88.10
2018-07-06T01:58:47.750Z,88.67
2018-07-06T02:01:26.088Z,88.06
2018-07-06T02:04:04.703Z,87.62
2018-07-06T02:06:43.201Z,85.81
2018-07-06T02:09:24.047Z,84.59
2018-07-06T02:12:02.480Z,87.32
2018-07-06T02:14:40.991Z,87.23
2018-07-06T02:17:19.383Z,88.25
2018-07-06T02:19:57.895Z,87.85
2018-07-06T02:22:36.427Z,87.89
2018-07-06T02:25:14.867Z,87.49
2018-07-06T02:27:53.423Z,87.61
2018-07-06T02:30:31.987Z,87.55
2018-07-06T02:33:10.532Z,88.52
2018-07-06T02:35:48.984Z,88.88
2018-07-06T02:38:27.342Z,87.16
2018-07-06T02:41:05.733Z,89.22
2018-07-06T02:43:44.223Z,89.78
2018-07-06T02:46:22.727Z,90.19
2018-07-06T02:49:01.080Z,91.00
2018-07-06T02:51:39.707Z,91.33
2018-07-06T02:54:18.295Z,92.42
2018-07-06T02:56:56.807Z,93.09
2018-07-06T02:59:35.407Z,92.93
2018-07-06T03:02:13.911Z,93.33
2018-07-06T03:04:52.393Z,92.66
2018-07-06T03:07:30.811Z,93.05
2018-07-06T03:10:09.357Z,93.59
2018-07-06T03:12:47.847Z,93.01
2018-07-06T03:15:26.393Z,93.41
2018-07-06T03:18:04.806Z,92.46
2018-07-06T03:20:43.287Z,93.47
2018-07-06T03:23:21.754Z,92.61
2018-07-06T03:26:00.075Z,92.90
2018-07-06T03:28:38.696Z,92.59
2018-07-06T03:31:17.010Z,92.95
2018-07-06T03:33:55.657Z,92.96
2018-07-06T03:36:33.968Z,92.24
2018-07-06T03:39:12.335Z,92.19
2018-07-06T03:41:50.859Z,92.76
2018-07-06T03:44:29.291Z,92.05
2018-07-06T03:47:07.859Z,92.67
2018-07-06T03:49:46.358Z,92.81
2018-07-06T03:52:24.999Z,91.93
2018-07-06T03:55:03.565Z,92.49
2018-07-06T03:57:42.131Z,92.72
2018-07-06T04:00:20.549Z,93.09
2018-07-06T04:02:59.087Z,92.60
2018-07-06T04:05:37.596Z,91.24
2018-07-06T04:08:16.035Z,91.91
2018-07-06T04:10:54.407Z,89.67
2018-07-06T04:13:32.975Z,90.45
2018-07-06T04:16:11.447Z,89.92
2018-07-06T04:18:49.840Z,87.94
2018-07-06T04:21:28.605Z,89.55
2018-07-06T04:24:07.114Z,89.37
2018-07-06T04:26:45.652Z,89.70
2018-07-06T04:29:24.146Z,89.74
2018-07-06T04:32:02.554Z,89.90
2018-07-06T04:34:41.007Z,88.03
2018-07-06T04:37:19.544Z,88.83
2018-07-06T04:39:57.951Z,89.50
2018-07-06T04:42:36.479Z,88.42
2018-07-06T04:45:14.852Z,88.87
2018-07-06T04:47:53.363Z,87.86
2018-07-06T04:50:32.011Z,89.17
2018-07-06T04:53:10.288Z,88.37
2018-07-06T04:55:48.783Z,89.68
2018-07-06T04:58:27.167Z,88.85
2018-07-06T05:01:05.715Z,88.22
2018-07-06T05:03:44.258Z,88.37
2018-07-06T05:06:22.820Z,88.12
2018-07-06T05:09:01.293Z,87.38
2018-07-06T05:11:39.654Z,86.93
2018-07-06T05:14:18.243Z,85.59
2018-07-06T05:16:56.676Z,87.54
2018-07-06T05:19:36.199Z,86.89
2018-07-06T05:22:14.763Z,88.08
2018-07-06T05:24:53.161Z,88.67
2018-07-06T05:27:31.648Z,88.12
2018-07-06T05:30:10.195Z,86.98
2018-07-06T05:32:48.728Z,87.60
2018-07-06T05:35:27.132Z,86.13
2018-07-06T05:38:05.663Z,86.80
2018-07-06T05:40:44.056Z,84.99
2018-07-06T05:43:22.527Z,84.47
2018-07-06T05:46:00.907Z,84.02
2018-07-06T05:48:39.412Z,83.59
2018-07-06T05:51:17.940Z,82.80
2018-07-06T05:53:56.549Z,83.82
2018-07-06T05:56:35.122Z,84.13
2018-07-06T05:59:13.703Z,83.69
2018-07-06T06:01:52.204Z,85.00
2018-07-06T06:04:30.624Z,83.29
2018-07-06T06:07:09.128Z,82.48
2018-07-06T06:09:35.978Z,83.18
2018-07-06T06:12:02.870Z,83.10
2018-07-06T06:14:29.731Z,82.81
2018-07-06T06:16:56.600Z,80.20
2018-07-06T06:19:23.462Z,82.76
2018-07-06T06:21:50.320Z,81.49
2018-07-06T06:24:17.175Z,81.03
2018-07-06T06:26:44.027Z,80.28
2018-07-06T06:29:10.887Z,79.43
2018-07-06T06:31:37.771Z,79.50
2018-07-06T06:34:04.627Z,77.92
2018-07-06T06:36:32.110Z,78.85
2018-07-06T06:38:58.990Z,78.42
2018-07-06T06:41:25.859Z,77.87
2018-07-06T06:43:52.732Z,76.12
2018-07-06T06:46:19.591Z,74.95
2018-07-06T06:48:46.573Z,73.04
2018-07-06T06:51:13.446Z,72.53
2018-07-06T06:53:40.595Z,71.36
2018-07-06T06:56:08.902Z,73.41
2018-07-06T06:58:41.259Z,73.20
2018-07-06T07:01:09.210Z,72.69
2018-07-06T07:03:36.185Z,73.36
2018-07-06T07:06:03.061Z,74.42
2018-07-06T07:08:29.935Z,73.29
2018-07-06T07:10:56.995Z,72.94
2018-07-06T07:13:23.854Z,71.46
2018-07-06T07:15:50.723Z,69.58
2018-07-06T07:18:17.663Z,69.65
2018-07-06T07:20:44.583Z,68.26
2018-07-06T07:23:11.671Z,67.72
2018-07-06T07:25:38.544Z,66.99
2018-07-06T07:28:05.427Z,65.46
2018-07-06T07:30:32.298Z,66.12
2018-07-06T07:32:59.218Z,64.66
2018-07-06T07:35:26.121Z,63.16
2018-07-06T07:37:53.120Z,63.82
2018-07-06T07:40:19.995Z,64.82
2018-07-06T07:42:46.864Z,63.71
2018-07-06T07:45:13.743Z,63.15
2018-07-06T07:47:40.619Z,66.11
2018-07-06T07:50:07.478Z,60.89
2018-07-06T07:52:45.930Z,62.21
2018-07-06T07:55:12.837Z,58.02
2018-07-06T07:57:39.671Z,60.05
2018-07-06T08:00:06.538Z,63.84
2018-07-06T08:02:33.491Z,65.04
2018-07-06T08:05:00.351Z,63.49
2018-07-06T08:07:27.211Z,60.44
2018-07-06T08:09:54.072Z,61.11
2018-07-06T08:12:20.947Z,58.83
2018-07-06T08:14:48.079Z,58.13
2018-07-06T08:17:14.944Z,59.28
2018-07-06T08:19:41.828Z,56.01
2018-07-06T08:22:08.688Z,58.92
2018-07-06T08:24:35.564Z,54.38
2018-07-06T08:27:02.485Z,52.29
2018-07-06T08:29:29.401Z,50.78
2018-07-06T08:31:56.320Z,49.22
2018-07-06T08:34:34.681Z,51.56
2018-07-06T08:37:33.259Z,51.30
2018-07-06T08:40:00.203Z,51.72
2018-07-06T08:42:30.196Z,51.09
2018-07-06T08:44:57.908Z,51.09
2018-07-06T08:47:24.811Z,53.14
2018-07-06T08:49:52.147Z,50.44
2018-07-06T08:52:19.295Z,52.64
2018-07-06T08:54:46.431Z,55.22
2018-07-06T08:57:13.435Z,55.79
2018-07-06T08:59:40.332Z,56.28
2018-07-06T09:02:07.228Z,57.00
2018-07-06T09:04:34.179Z,60.00
2018-07-06T09:07:00.950Z,55.66
2018-07-06T09:09:28.135Z,52.23
2018-07-06T09:11:54.963Z,49.49
2018-07-06T09:14:22.066Z,50.32
2018-07-06T09:16:49.265Z,51.82
2018-07-06T09:19:16.165Z,51.59
2018-07-06T09:21:43.031Z,49.38
2018-07-06T09:24:09.902Z,49.45
2018-07-06T09:26:36.779Z,49.01
2018-07-06T09:29:03.676Z,45.56
2018-07-06T09:31:30.563Z,48.23
2018-07-06T09:33:57.447Z,49.68
2018-07-06T09:36:24.336Z,51.09
2018-07-06T09:38:51.248Z,51.00
2018-07-06T09:41:18.210Z,53.22
2018-07-06T09:43:45.748Z,51.35
2018-07-06T09:46:12.619Z,51.23
2018-07-06T09:48:40.043Z,48.94
2018-07-06T09:51:06.911Z,48.21
2018-07-06T09:53:33.792Z,48.12
2018-07-06T09:56:00.676Z,47.64
2018-07-06T09:58:27.598Z,44.60
2018-07-06T10:00:58.783Z,46.41
2018-07-06T10:03:26.231Z,45.37
2018-07-06T10:05:53.221Z,48.53
2018-07-06T10:08:20.148Z,48.24
2018-07-06T10:10:47.015Z,46.65
2018-07-06T10:13:13.954Z,42.23
2018-07-06T10:15:40.807Z,41.56
2018-07-06T10:18:07.736Z,44.28
2018-07-06T10:20:34.584Z,45.36
2018-07-06T10:23:01.488Z,46.03
2018-07-06T10:25:28.351Z,46.43
2018-07-06T10:28:04.427Z,45.53
2018-07-06T10:30:39.627Z,42.52
2018-07-06T10:33:07.228Z,41.83
2018-07-06T10:35:34.080Z,46.35
2018-07-06T10:38:00.962Z,46.21
2018-07-06T10:40:27.875Z,46.26
2018-07-06T10:42:54.743Z,44.39
2018-07-06T10:45:21.642Z,43.39
2018-07-06T10:47:48.511Z,44.36
2018-07-06T10:50:15.379Z,46.08
2018-07-06T10:52:42.244Z,45.45
2018-07-06T10:55:09.135Z,41.80
2018-07-06T10:57:36.011Z,42.62
2018-07-06T11:00:02.915Z,46.65
2018-07-06T11:02:29.827Z,46.34
2018-07-06T11:04:56.782Z,44.91
2018-07-06T11:07:23.634Z,42.20
2018-07-06T11:09:50.544Z,44.94
2018-07-06T11:12:17.426Z,40.98
2018-07-06T11:14:44.335Z,44.86
2018-07-06T11:17:11.199Z,46.22
2018-07-06T11:19:38.115Z,43.66
2018-07-06T11:22:04.967Z,43.33
2018-07-06T11:24:31.833Z,43.91
2018-07-06T11:26:58.691Z,44.46
2018-07-06T11:29:25.627Z,46.59
2018-07-06T11:31:52.530Z,45.03
2018-07-06T11:34:19.387Z,46.77
2018-07-06T11:36:46.249Z,44.63
2018-07-06T11:39:13.142Z,42.84
2018-07-06T11:41:40.000Z,42.01
2018-07-06T11:44:06.983Z,42.30
2018-07-06T11:46:33.844Z,39.43
2018-07-06T11:49:00.731Z,39.38
2018-07-06T11:51:28.707Z,37.64
2018-07-06T11:53:55.618Z,41.31
2018-07-06T11:56:22.463Z,40.09
2018-07-06T11:58:49.324Z,38.14
2018-07-06T12:01:16.195Z,38.91
2018-07-06T12:03:43.092Z,39.97
2018-07-06T12:06:10.031Z,37.90
2018-07-06T12:08:36.903Z,39.26
2018-07-06T12:11:04.431Z,38.83
2018-07-06T12:13:31.315Z,38.96
2018-07-06T12:15:58.436Z,39.53
2018-07-06T12:18:25.360Z,38.65
2018-07-06T12:20:52.237Z,36.42
2018-07-06T12:23:19.090Z,36.78
2018-07-06T12:25:47.040Z,37.31
2018-07-06T12:28:13.905Z,36.71
2018-07-06T12:31:27.344Z,39.03
2018-07-06T12:33:54.198Z,38.03
2018-07-06T12:36:21.114Z,37.29
2018-07-06T12:38:48.277Z,38.64
2018-07-06T12:41:15.173Z,39.86
2018-07-06T12:43:42.051Z,40.47
2018-07-06T12:46:08.939Z,37.12
2018-07-06T12:48:35.828Z,35.92
2018-07-06T12:51:02.698Z,37.29
2018-07-06T12:53:29.596Z,36.13
2018-07-06T12:55:56.692Z,35.76
2018-07-06T12:58:23.644Z,37.78
2018-07-06T13:00:50.476Z,39.53
2018-07-06T13:03:17.344Z,38.27
2018-07-06T13:05:44.239Z,36.94
2018-07-06T13:08:11.108Z,37.80
2018-07-06T13:10:38.673Z,36.89
2018-07-06T13:13:05.543Z,37.33
2018-07-06T13:15:32.407Z,38.70
2018-07-06T13:17:59.318Z,37.56
2018-07-06T13:20:26.185Z,34.47
2018-07-06T13:22:53.092Z,34.23
2018-07-06T13:25:20.045Z,34.24
2018-07-06T13:27:46.915Z,34.40
2018-07-06T13:30:14.357Z,35.29
2018-07-06T13:32:41.224Z,37.09
2018-07-06T13:35:08.179Z,37.34
2018-07-06T13:37:35.039Z,40.66
2018-07-06T13:40:01.922Z,39.23
2018-07-06T13:42:28.819Z,38.22
2018-07-06T13:44:55.676Z,40.72
2018-07-06T13:47:22.526Z,39.06
2018-07-06T13:49:49.379Z,39.96
2018-07-06T13:52:16.234Z,37.15
2018-07-06T13:54:43.131Z,38.98
2018-07-06T13:57:11.219Z,36.88
2018-07-06T13:59:38.095Z,36.81
2018-07-06T14:02:05.071Z,37.38
2018-07-06T14:04:31.947Z,38.66
2018-07-06T14:07:01.845Z,37.57
2018-07-06T14:09:28.713Z,36.88
2018-07-06T14:11:55.718Z,39.85
2018-07-06T14:14:25.599Z,38.70
2018-07-06T14:16:52.475Z,37.55
2018-07-06T14:19:19.342Z,38.20
2018-07-06T14:21:46.303Z,36.77
2018-07-06T14:24:13.371Z,38.65
2018-07-06T14:26:40.315Z,38.33
2018-07-06T14:29:07.175Z,39.95
2018-07-06T14:31:36.052Z,39.64
2018-07-06T14:34:06.196Z,40.65
2018-07-06T14:36:36.071Z,39.25
2018-07-06T14:39:04.208Z,40.48
2018-07-06T14:41:31.056Z,42.66
2018-07-06T14:43:57.923Z,42.42
2018-07-06T14:46:24.832Z,41.43
2018-07-06T14:48:51.732Z,41.17
2018-07-06T14:51:18.648Z,41.05
2018-07-06T14:53:45.505Z,41.26
2018-07-06T14:56:12.379Z,42.05
2018-07-06T14:58:39.239Z,43.36
2018-07-06T15:01:09.111Z,41.80
2018-07-06T15:03:35.975Z,43.86
2018-07-06T15:06:03.841Z,42.57
2018-07-06T15:08:30.700Z,44.40
2018-07-06T15:10:57.607Z,45.28
2018-07-06T15:13:25.570Z,42.88
2018-07-06T15:15:53.997Z,44.93
2018-07-06T15:18:20.868Z,45.20
2018-07-06T15:20:47.719Z,45.73
2018-07-06T15:23:14.600Z,44.60
2018-07-06T15:25:41.463Z,38.70
2018-07-06T15:28:08.331Z,36.77
2018-07-06T15:30:35.190Z,32.74
2018-07-06T15:33:02.067Z,31.73
2018-07-06T15:35:28.927Z,31.06
2018-07-06T15:37:55.799Z,30.80
2018-07-06T15:40:22.812Z,30.33
2018-07-06T15:42:53.205Z,30.97
2018-07-06T15:45:20.136Z,28.31
2018-07-06T15:47:47.039Z,30.03
2018-07-06T15:50:13.948Z,30.50
2018-07-06T15:52:40.791Z,30.54
2018-07-06T15:55:07.696Z,33.02
2018-07-06T15:57:34.642Z,34.62
2018-07-06T16:00:01.476Z,37.04
2018-07-06T16:02:28.336Z,38.13
2018-07-06T16:04:55.239Z,37.95
2018-07-06T16:07:22.155Z,38.50
2018-07-06T16:09:49.040Z,39.49
2018-07-06T16:12:15.903Z,39.10
2018-07-06T16:14:42.810Z,39.51
2018-07-06T16:17:09.672Z,41.32
2018-07-06T16:19:36.761Z,40.74
2018-07-06T16:22:03.631Z,42.33
2018-07-06T16:24:30.584Z,41.18
2018-07-06T16:26:57.505Z,40.31
2018-07-06T16:29:24.414Z,40.17
2018-07-06T16:31:51.354Z,37.08
2018-07-06T16:34:18.230Z,31.51
2018-07-06T16:36:45.116Z,29.21
2018-07-06T16:39:12.135Z,29.11
2018-07-06T16:41:40.031Z,27.61
2018-07-06T16:44:07.021Z,27.11
2018-07-06T16:46:33.864Z,26.92
2018-07-06T16:49:01.058Z,25.55
2018-07-06T16:51:27.943Z,24.66
2018-07-06T16:53:54.799Z,28.29
2018-07-06T16:56:21.668Z,32.76
2018-07-06T16:58:48.609Z,35.40
2018-07-06T17:01:15.501Z,36.07
2018-07-06T17:03:42.415Z,33.25
2018-07-06T17:06:09.283Z,32.39
2018-07-06T17:08:37.031Z,30.15
2018-07-06T17:11:03.948Z,30.37
2018-07-06T17:13:30.813Z,34.40
2018-07-06T17:15:57.715Z,34.70
2018-07-06T17:18:24.580Z,34.61
2018-07-06T17:20:51.439Z,34.18
2018-07-06T17:23:19.118Z,31.82
2018-07-06T17:25:45.991Z,29.85
2018-07-06T17:28:12.912Z,33.50
2018-07-06T17:30:39.795Z,30.61
2018-07-06T17:33:06.719Z,28.11
2018-07-06T17:35:33.578Z,26.68
2018-07-06T17:38:00.473Z,27.50
2018-07-06T17:40:33.603Z,28.20
2018-07-06T17:43:00.475Z,26.78
2018-07-06T17:45:29.852Z,28.28
2018-07-06T17:47:57.620Z,29.21
2018-07-06T17:50:24.557Z,29.32
2018-07-06T17:52:51.360Z,28.61
2018-07-06T17:55:18.223Z,29.41
2018-07-06T17:57:45.201Z,29.84
2018-07-06T18:00:12.076Z,30.23
2018-07-06T18:02:38.932Z,31.35
2018-07-06T18:05:05.794Z,31.15
2018-07-06T18:07:32.897Z,32.31
2018-07-06T18:09:59.715Z,31.53
2018-07-06T18:12:26.615Z,33.03
2018-07-06T18:14:53.527Z,32.21
2018-07-06T18:17:20.432Z,32.94
2018-07-06T18:19:47.339Z,32.65
2018-07-06T18:22:14.245Z,32.96
2018-07-06T18:24:41.148Z,31.96
2018-07-06T18:27:08.023Z,32.56
2018-07-06T18:29:34.948Z,33.25
2018-07-06T18:32:01.857Z,32.58
2018-07-06T18:34:28.719Z,34.06
2018-07-06T18:36:55.597Z,35.98
2018-07-06T18:39:22.496Z,37.85
2018-07-06T18:41:49.408Z,40.41
2018-07-06T18:44:16.282Z,40.99
2018-07-06T18:46:44.028Z,42.62
2018-07-06T18:49:10.898Z,43.11
2018-07-06T18:51:37.791Z,44.93
2018-07-06T18:54:04.658Z,43.93
2018-07-06T18:56:31.543Z,46.84
2018-07-06T18:58:58.410Z,46.99
2018-07-06T19:01:25.319Z,47.67
2018-07-06T19:03:52.146Z,49.10
2018-07-06T19:06:19.020Z,49.12
2018-07-06T19:08:46.020Z,49.00
2018-07-06T19:11:12.883Z,50.58
2018-07-06T19:13:39.743Z,51.20
2018-07-06T19:16:06.621Z,51.96
2018-07-06T19:18:33.477Z,53.34
2018-07-06T19:21:00.407Z,54.03
2018-07-06T19:23:27.307Z,55.81
2018-07-06T19:25:54.303Z,55.89
2018-07-06T19:28:21.185Z,56.74
2018-07-06T19:30:54.267Z,57.52
2018-07-06T19:33:21.095Z,56.93
2018-07-06T19:35:48.516Z,59.10
2018-07-06T19:38:15.374Z,60.13
2018-07-06T19:40:42.235Z,58.90
2018-07-06T19:43:16.620Z,59.94
2018-07-06T19:45:43.492Z,59.80
2018-07-06T19:48:10.412Z,61.10
2018-07-06T19:50:37.268Z,62.07
2018-07-06T19:53:04.211Z,62.98
2018-07-06T19:55:31.652Z,64.58
2018-07-06T19:57:58.528Z,64.77
2018-07-06T20:00:25.463Z,64.49
2018-07-06T20:02:52.569Z,65.29
2018-07-06T20:05:19.483Z,66.43
2018-07-06T20:07:46.379Z,66.83
2018-07-06T20:10:13.211Z,67.46
2018-07-06T20:12:43.091Z,67.84
2018-07-06T20:15:09.980Z,69.25
2018-07-06T20:17:36.823Z,68.00
2018-07-06T20:20:05.933Z,68.30
2018-07-06T20:22:32.775Z,68.27
2018-07-06T20:24:59.645Z,69.44
2018-07-06T20:27:26.511Z,68.50
2018-07-06T20:29:53.371Z,68.66
2018-07-06T20:32:20.223Z,71.17
2018-07-06T20:34:47.097Z,71.73
2018-07-06T20:37:13.963Z,73.42
2018-07-06T20:39:40.851Z,73.22
2018-07-06T20:42:07.771Z,73.15
2018-07-06T20:44:34.626Z,75.10
2018-07-06T20:47:01.524Z,74.21
2018-07-06T20:49:28.383Z,73.80
2018-07-06T20:51:55.238Z,73.29
2018-07-06T20:54:22.132Z,74.58
2018-07-06T20:56:49.000Z,72.58
2018-07-06T20:59:15.863Z,73.52
2018-07-06T21:01:42.719Z,73.21
2018-07-06T21:04:09.716Z,73.02
2018-07-06T21:06:37.218Z,74.08
2018-07-06T21:09:05.371Z,74.01
2018-07-06T21:11:32.253Z,74.67
2018-07-06T21:13:59.106Z,74.25
2018-07-06T21:16:26.012Z,74.44
2018-07-06T21:18:53.119Z,73.89
2018-07-06T21:21:19.970Z,74.15
2018-07-06T21:23:46.817Z,74.04
2018-07-06T21:26:13.667Z,72.73
2018-07-06T21:28:42.160Z,74.04
2018-07-06T21:31:09.003Z,74.79
2018-07-06T21:33:35.850Z,74.15
2018-07-06T21:36:02.904Z,74.65
2018-07-06T21:38:29.772Z,72.39
2018-07-06T21:40:56.630Z,74.89
2018-07-06T21:43:23.508Z,76.52
2018-07-06T21:45:50.359Z,76.10
2018-07-06T21:48:17.247Z,74.77
2018-07-06T21:50:44.108Z,74.76
2018-07-06T21:53:11.057Z,74.83
2018-07-06T21:55:37.843Z,74.31
2018-07-06T21:58:04.699Z,72.87
2018-07-06T22:00:37.951Z,74.00
2018-07-06T22:03:05.351Z,74.79
2018-07-06T22:05:32.220Z,75.60
2018-07-06T22:07:59.284Z,75.44
2018-07-06T22:10:26.131Z,76.05
2018-07-06T22:12:52.967Z,75.51
2018-07-06T22:15:19.852Z,75.48
2018-07-06T22:17:46.811Z,76.00
2018-07-06T22:20:13.665Z,74.86
2018-07-06T22:22:40.585Z,75.14
2018-07-06T22:25:07.391Z,76.16
2018-07-06T22:27:34.228Z,76.12
2018-07-06T22:30:01.079Z,76.72
2018-07-06T22:32:27.943Z,76.34
2018-07-06T22:34:54.766Z,75.44
2018-07-06T22:37:23.127Z,74.60
2018-07-06T22:39:54.048Z,74.65
2018-07-06T22:42:22.734Z,75.22
2018-07-06T22:44:49.632Z,74.17
2018-07-06T22:47:16.495Z,75.07
2018-07-06T22:49:43.347Z,75.92
2018-07-06T22:52:10.206Z,75.37
2018-07-06T22:54:37.103Z,76.79
2018-07-06T22:57:03.971Z,75.75
2018-07-06T22:59:30.831Z,76.45
2018-07-06T23:01:57.686Z,76.39
2018-07-06T23:04:24.557Z,76.34
2018-07-06T23:06:51.427Z,75.33
2018-07-06T23:09:18.271Z,75.72
2018-07-06T23:11:45.147Z,74.43
2018-07-06T23:14:12.000Z,75.79
2018-07-06T23:16:38.848Z,76.62
2018-07-06T23:19:05.707Z,77.24
2018-07-06T23:21:32.559Z,77.39
2018-07-06T23:23:59.432Z,77.46
2018-07-06T23:26:26.288Z,77.13
2018-07-06T23:28:53.183Z,76.06
2018-07-06T23:31:20.059Z,75.88
2018-07-06T23:33:46.919Z,76.13
2018-07-06T23:36:13.788Z,76.48
2018-07-06T23:38:40.643Z,76.30
2018-07-06T23:41:07.500Z,76.96
2018-07-06T23:43:34.364Z,77.39
2018-07-06T23:46:01.311Z,77.23
2018-07-06T23:48:28.191Z,76.29
2018-07-06T23:50:55.048Z,77.21
2018-07-06T23:53:21.891Z,76.85
2018-07-06T23:55:48.780Z,76.68
2018-07-06T23:58:15.688Z,77.77
